Terminal Aerodrome Forecast
Issued by NWS Jackson, MS

Current Version | Previous Version | Text Only | Print | Product List | Glossary On
Versions: 1 2 3 4 5 6 7 8 9 10 11 12 13 14 15
000
FTUS44 KMEG 300500
TAFTUP
TAF
KTUP 300521Z 3006/3106 00000KT P6SM SCT250
     FM301600 03005KT P6SM FEW150 BKN250
     FM302200 02003KT P6SM FEW090 BKN150
     FM310400 02003KT P6SM FEW040 BKN090=

USA.gov is the U.S. government's official web portal to all federal, state and local government web resources and services.